Time;durP1;ratioP1;P1;durP2;ratioP2;P2;SDS_P1;SDS_P2;PMS_P1;PMS_P2;Temp;Humidity;BMP_temperature;BMP_pressure;BME280_temperature;BME280_humidity;BME280_pressure;Samples;Min_cycle;Max_cycle;Signal;HPM_P1;HPM_P2
2022/05/17 00:01:04;;;;;;;9.38;2.00;;;19.10;74.30;;;;;;5073453;28;20396;-84
2022/05/17 00:03:30;;;;;;;9.02;2.10;;;19.10;74.40;;;;;;5072800;28;20021;-85
2022/05/17 00:05:56;;;;;;;9.40;2.22;;;19.00;74.50;;;;;;5072803;28;20071;-84
2022/05/17 00:08:23;;;;;;;5.35;1.80;;;19.00;74.50;;;;;;5054557;28;20385;-84
2022/05/17 00:10:49;;;;;;;5.82;1.73;;;19.00;75.00;;;;;;5054846;28;20029;-84
2022/05/17 00:13:15;;;;;;;;;;;19.00;75.10;;;;;;5072882;28;20031;-84
2022/05/17 00:15:49;;;;;;;8.93;2.10;;;18.90;75.30;;;;;;5054531;28;19999;-84
2022/05/17 00:18:17;;;;;;;9.75;2.15;;;18.80;75.70;;;;;;5054554;28;20024;-84
2022/05/17 00:20:44;;;;;;;6.47;1.73;;;18.80;75.90;;;;;;5072359;28;20412;-84
2022/05/17 00:23:12;;;;;;;6.50;1.90;;;18.80;75.90;;;;;;5072843;28;20457;-85
2022/05/17 00:25:39;;;;;;;5.90;2.17;;;18.80;76.00;;;;;;5072585;28;20429;-84
2022/05/17 00:28:04;;;;;;;;;;;18.80;76.20;;;;;;5072921;28;20021;-84
2022/05/17 00:30:31;;;;;;;8.63;1.70;;;18.70;76.60;;;;;;5054561;28;20067;-85
2022/05/17 00:32:58;;;;;;;;;;;18.70;76.90;;;;;;5072716;28;20047;-85
2022/05/17 00:35:24;;;;;;;6.45;2.22;;;18.60;77.00;;;;;;5072256;28;19991;-84
2022/05/17 00:37:50;;;;;;;8.87;1.90;;;18.60;77.40;;;;;;5072430;28;20025;-84
2022/05/17 00:40:16;;;;;;;6.87;1.63;;;18.60;77.40;;;;;;5071956;28;20444;-84
2022/05/17 00:42:42;;;;;;;12.07;1.90;;;18.60;77.60;;;;;;5072043;28;20032;-85
2022/05/17 00:45:11;;;;;;;5.53;1.88;;;18.50;78.00;;;;;;5072275;28;20045;-83
2022/05/17 00:47:58;;;;;;;10.20;2.45;;;18.50;78.30;;;;;;5071823;28;20028;-84
2022/05/17 00:50:27;;;;;;;8.57;2.00;;;18.50;78.50;;;;;;5072319;28;20025;-84
2022/05/17 00:52:58;;;;;;;8.23;2.10;;;18.50;78.60;;;;;;5072146;28;20020;-84
2022/05/17 00:55:29;;;;;;;7.03;2.00;;;18.40;79.10;;;;;;5071874;28;20036;-84
2022/05/17 00:58:03;;;;;;;8.02;1.90;;;18.40;79.20;;;;;;5053747;28;20477;-83
2022/05/17 01:00:37;;;;;;;9.95;1.80;;;18.30;79.30;;;;;;5072013;28;20025;-84
2022/05/17 01:03:07;;;;;;;10.07;1.95;;;18.30;79.40;;;;;;5053589;28;20056;-84
2022/05/17 01:05:43;;;;;;;9.38;2.20;;;18.40;79.50;;;;;;5072014;28;20107;-83
2022/05/17 01:08:12;;;;;;;6.78;1.75;;;18.40;79.30;;;;;;5071781;28;20020;-84
2022/05/17 01:10:39;;;;;;;8.35;1.98;;;18.40;79.40;;;;;;5071804;28;20051;-85
2022/05/17 01:15:50;;;;;;;7.45;1.90;;;18.20;80.00;;;;;;5071415;28;20059;-84
2022/05/17 01:18:17;;;;;;;5.53;1.90;;;18.20;80.30;;;;;;5071316;28;20146;-85
2022/05/17 01:20:43;;;;;;;12.65;2.50;;;18.20;80.40;;;;;;5071196;28;20036;-85
2022/05/17 01:23:09;;;;;;;8.98;1.80;;;18.20;80.40;;;;;;5071685;28;20047;-84
2022/05/17 01:25:36;;;;;;;7.38;1.70;;;18.10;80.70;;;;;;5071436;28;20090;-84
2022/05/17 01:28:11;;;;;;;5.35;1.83;;;18.10;80.70;;;;;;5071698;28;20398;-84
2022/05/17 01:30:37;;;;;;;5.65;1.70;;;18.10;81.00;;;;;;5071197;28;20029;-84
2022/05/17 01:33:04;;;;;;;5.55;1.85;;;18.00;81.80;;;;;;5071526;28;20112;-84
2022/05/17 01:35:30;;;;;;;6.70;1.92;;;18.10;81.10;;;;;;5071459;28;20034;-84
2022/05/17 01:37:56;;;;;;;6.35;1.90;;;18.10;81.20;;;;;;5071237;28;20017;-85
2022/05/17 01:40:24;;;;;;;8.93;2.00;;;18.20;80.90;;;;;;5071316;28;20115;-85
2022/05/17 01:42:50;;;;;;;7.05;2.00;;;18.10;81.10;;;;;;5052325;28;20266;-83
2022/05/17 01:45:16;;;;;;;6.93;2.10;;;18.10;81.00;;;;;;5070878;28;20489;-85
2022/05/17 01:47:42;;;;;;;9.88;2.30;;;18.00;81.20;;;;;;5070891;28;20040;-85
2022/05/17 01:50:09;;;;;;;7.53;2.10;;;18.00;81.10;;;;;;5070960;28;20021;-84
2022/05/17 01:52:35;;;;;;;7.47;1.73;;;18.00;81.30;;;;;;5070945;28;20020;-83
2022/05/17 01:55:02;;;;;;;6.40;1.95;;;18.00;81.20;;;;;;5071088;28;20108;-84
2022/05/17 01:57:28;;;;;;;;;;;18.00;81.20;;;;;;5053303;28;20401;-84
2022/05/17 01:59:54;;;;;;;10.00;1.75;;;17.90;81.50;;;;;;5071049;28;20405;-84
2022/05/17 02:02:20;;;;;;;8.97;1.97;;;17.80;81.80;;;;;;5071075;28;20039;-84
2022/05/17 02:04:46;;;;;;;8.13;2.00;;;17.80;81.70;;;;;;5070856;28;20162;-84
2022/05/17 02:07:12;;;;;;;6.45;1.73;;;17.70;81.70;;;;;;5070964;28;20024;-84
2022/05/17 02:09:38;;;;;;;11.10;1.90;;;17.80;81.70;;;;;;5071461;28;20032;-85
2022/05/17 02:12:05;;;;;;;8.75;2.10;;;17.80;81.80;;;;;;5070773;28;20376;-83
2022/05/17 02:14:31;;;;;;;;;;;17.80;81.70;;;;;;5053126;28;20024;-85
2022/05/17 02:17:00;;;;;;;5.03;1.75;;;17.80;81.70;;;;;;5071000;28;19958;-85
2022/05/17 02:19:28;;;;;;;8.20;1.83;;;17.80;81.90;;;;;;5071081;28;20038;-84
2022/05/17 02:21:54;;;;;;;7.63;2.20;;;17.80;81.90;;;;;;5070021;28;20106;-84
2022/05/17 02:24:22;;;;;;;10.93;2.00;;;17.70;82.10;;;;;;5070158;28;20044;-84
2022/05/17 02:26:48;;;;;;;6.30;1.77;;;17.80;82.20;;;;;;5070227;28;20499;-84
2022/05/17 02:29:14;;;;;;;;;;;17.70;82.30;;;;;;5071067;28;20063;-84
2022/05/17 02:31:41;;;;;;;7.55;1.90;;;17.70;82.10;;;;;;5070146;28;20344;-84
2022/05/17 02:34:07;;;;;;;5.05;1.60;;;17.70;82.20;;;;;;5070306;28;20044;-84
2022/05/17 02:36:45;;;;;;;7.53;1.97;;;17.80;82.10;;;;;;5051794;28;20021;-85
2022/05/17 02:42:33;;;;;;;6.82;1.80;;;17.80;81.60;;;;;;5070828;28;20501;-84
2022/05/17 02:45:00;;;;;;;6.50;1.85;;;17.90;81.40;;;;;;5069958;28;20029;-84
2022/05/17 02:47:26;;;;;;;5.60;1.90;;;17.90;81.40;;;;;;5069779;28;20497;-83
2022/05/17 02:49:52;;;;;;;8.52;1.98;;;17.90;81.50;;;;;;5069929;28;20477;-84
2022/05/17 02:52:18;;;;;;;6.40;1.87;;;17.90;81.70;;;;;;5070016;28;20453;-85
2022/05/17 02:54:44;;;;;;;9.93;1.80;;;18.00;81.50;;;;;;5071075;28;20053;-84
2022/05/17 02:57:11;;;;;;;5.50;1.87;;;17.90;81.50;;;;;;5074059;28;20032;-84
2022/05/17 02:59:38;;;;;;;6.28;1.58;;;17.90;81.90;;;;;;5074039;28;20031;-84
2022/05/17 03:02:04;;;;;;;5.47;1.73;;;17.80;81.90;;;;;;5073709;28;20033;-84
2022/05/17 03:04:30;;;;;;;6.25;1.98;;;17.80;82.30;;;;;;5055617;28;20036;-85
2022/05/17 03:06:57;;;;;;;6.30;1.83;;;17.80;82.60;;;;;;5074157;28;20060;-84
2022/05/17 03:09:24;;;;;;;5.70;2.05;;;17.80;82.60;;;;;;5074069;28;20119;-84
2022/05/17 03:11:50;;;;;;;6.32;1.83;;;17.70;82.80;;;;;;5073915;28;20115;-85
2022/05/17 03:14:17;;;;;;;6.82;2.35;;;17.70;83.00;;;;;;5074207;28;20070;-84
2022/05/17 03:16:44;;;;;;;9.25;1.52;;;17.70;83.20;;;;;;5074195;28;20521;-84
2022/05/17 03:19:12;;;;;;;8.00;1.92;;;17.70;83.30;;;;;;5073782;28;20032;-83
2022/05/17 03:21:38;;;;;;;6.65;2.03;;;17.70;83.20;;;;;;5055395;28;20052;-84
2022/05/17 03:24:04;;;;;;;9.88;2.78;;;17.70;83.20;;;;;;5073535;28;20040;-84
2022/05/17 03:26:30;;;;;;;6.38;2.10;;;17.70;83.00;;;;;;5074174;28;20016;-85
2022/05/17 03:28:58;;;;;;;4.77;2.00;;;17.70;83.00;;;;;;5074179;28;20109;-86
2022/05/17 03:31:26;;;;;;;4.60;1.98;;;17.70;83.30;;;;;;5074529;28;20020;-84
2022/05/17 03:33:52;;;;;;;7.10;2.10;;;17.70;83.50;;;;;;5056434;28;20075;-85
2022/05/17 03:36:19;;;;;;;6.38;2.15;;;17.60;83.50;;;;;;5074094;28;20025;-84
2022/05/17 03:38:45;;;;;;;8.43;2.20;;;17.70;83.50;;;;;;5074616;28;20158;-85
2022/05/17 03:41:14;;;;;;;11.27;2.10;;;17.70;83.60;;;;;;5073885;28;20519;-84
2022/05/17 03:43:40;;;;;;;7.60;2.42;;;17.60;83.70;;;;;;5074310;28;20031;-85
2022/05/17 03:46:09;;;;;;;7.17;1.90;;;17.60;83.60;;;;;;5073952;28;20054;-84
2022/05/17 03:48:36;;;;;;;10.32;2.55;;;17.60;83.60;;;;;;5073855;28;20029;-85
2022/05/17 03:51:10;;;;;;;12.32;2.08;;;17.60;83.60;;;;;;5073642;28;20040;-84
2022/05/17 03:53:36;;;;;;;8.68;2.20;;;17.70;83.60;;;;;;5055442;28;20472;-85
2022/05/17 03:56:03;;;;;;;6.90;2.40;;;17.70;83.50;;;;;;5073600;28;20059;-85
2022/05/17 03:58:29;;;;;;;11.10;2.30;;;17.70;83.60;;;;;;5073851;28;20028;-84
2022/05/17 04:00:55;;;;;;;5.60;1.83;;;17.70;83.60;;;;;;5073770;28;20020;-84
2022/05/17 04:03:21;;;;;;;9.70;2.43;;;17.80;83.60;;;;;;5073886;28;20089;-85
2022/05/17 04:05:47;;;;;;;7.80;2.30;;;17.80;83.30;;;;;;5072698;28;20358;-82
2022/05/17 04:08:13;;;;;;;7.82;2.03;;;17.80;83.30;;;;;;5073168;28;20523;-84
2022/05/17 04:10:39;;;;;;;6.43;1.87;;;17.80;83.30;;;;;;5073485;28;20025;-85
2022/05/17 04:13:05;;;;;;;8.17;3.10;;;17.80;83.30;;;;;;5073126;28;20021;-85
2022/05/17 04:15:31;;;;;;;9.75;2.60;;;17.80;83.40;;;;;;5073428;28;20024;-85
2022/05/17 04:17:57;;;;;;;9.68;2.50;;;17.80;83.50;;;;;;5074493;28;20035;-84
2022/05/17 04:20:26;;;;;;;7.83;2.13;;;17.80;83.60;;;;;;5056367;28;20111;-85
2022/05/17 04:22:54;;;;;;;10.50;2.70;;;17.90;83.60;;;;;;5056205;28;20405;-85
2022/05/17 04:25:23;;;;;;;14.88;2.70;;;17.90;83.40;;;;;;5056275;28;20036;-85
2022/05/17 04:27:50;;;;;;;9.32;2.55;;;17.90;83.40;;;;;;5056310;28;20028;-86
2022/05/17 04:30:17;;;;;;;9.68;2.55;;;18.00;83.20;;;;;;5056303;28;20390;-86
2022/05/17 04:32:44;;;;;;;8.65;2.10;;;18.00;83.20;;;;;;5074637;28;20028;-86
2022/05/17 04:35:11;;;;;;;8.82;2.88;;;18.00;82.90;;;;;;5074041;28;20123;-85
2022/05/17 04:37:37;;;;;;;9.77;2.65;;;18.00;83.00;;;;;;5055887;28;20396;-84
2022/05/17 04:40:10;;;;;;;7.30;2.38;;;18.00;82.90;;;;;;5055581;28;20021;-85
2022/05/17 04:42:37;;;;;;;11.50;3.08;;;18.00;82.80;;;;;;5073569;28;20025;-83
2022/05/17 04:45:05;;;;;;;10.00;2.60;;;18.00;83.10;;;;;;5074104;28;20489;-86
2022/05/17 04:47:31;;;;;;;10.98;2.92;;;18.10;82.90;;;;;;5074223;28;20077;-86
2022/05/17 04:49:57;;;;;;;11.77;2.85;;;18.10;82.60;;;;;;5074015;28;20500;-85
2022/05/17 04:52:24;;;;;;;7.78;2.25;;;18.10;82.50;;;;;;5073797;28;20021;-87
2022/05/17 04:54:51;;;;;;;9.55;2.53;;;18.20;82.70;;;;;;5072108;28;20027;-89
2022/05/17 04:57:18;;;;;;;7.72;2.50;;;18.30;82.80;;;;;;5055842;28;20396;-87
2022/05/17 04:59:44;;;;;;;17.92;2.97;;;18.30;82.60;;;;;;5073878;28;20454;-80
2022/05/17 05:02:10;;;;;;;8.98;2.42;;;18.40;83.40;;;;;;5073738;28;20388;-84
2022/05/17 05:04:38;;;;;;;5.47;2.58;;;18.70;82.60;;;;;;5074324;28;20374;-87
2022/05/17 05:07:05;;;;;;;6.53;2.30;;;19.40;80.30;;;;;;5073712;28;20369;-87
2022/05/17 05:09:32;;;;;;;5.63;1.98;;;20.00;78.80;;;;;;5073759;28;20035;-87
2022/05/17 05:11:58;;;;;;;;;;;20.40;77.70;;;;;;5074375;28;20052;-85
2022/05/17 05:14:24;;;;;;;8.15;2.25;;;20.90;76.70;;;;;;5073617;28;19940;-86
2022/05/17 05:16:50;;;;;;;6.40;2.20;;;21.70;75.00;;;;;;5073109;28;20108;-87
2022/05/17 05:19:17;;;;;;;7.43;2.53;;;22.40;73.60;;;;;;5072949;28;20047;-87
2022/05/17 05:21:43;;;;;;;11.15;2.60;;;22.70;72.80;;;;;;5073081;28;20118;-87
2022/05/17 05:24:11;;;;;;;8.80;2.63;;;23.40;71.70;;;;;;5055743;28;20067;-88
2022/05/17 05:26:38;;;;;;;9.05;2.30;;;24.40;69.80;;;;;;5073162;28;20028;-87
2022/05/17 05:29:06;;;;;;;10.10;2.42;;;24.70;68.60;;;;;;5055256;28;20377;-88
2022/05/17 05:31:32;;;;;;;10.60;2.28;;;25.40;67.60;;;;;;5055195;28;20448;-87
2022/05/17 05:34:00;;;;;;;4.65;1.92;;;26.10;65.90;;;;;;5054431;28;20492;-87
2022/05/17 05:36:28;;;;;;;5.75;2.17;;;27.00;64.70;;;;;;5054005;28;20025;-87
2022/05/17 05:38:56;;;;;;;7.63;2.33;;;27.40;64.00;;;;;;5072792;28;20333;-86
2022/05/17 05:41:22;;;;;;;10.07;1.80;;;27.30;63.60;;;;;;5073111;28;20089;-85
2022/05/17 05:43:48;;;;;;;9.40;2.40;;;27.70;63.00;;;;;;5054897;28;20029;-86
2022/05/17 05:46:14;;;;;;;5.22;1.73;;;28.50;62.10;;;;;;5055187;28;20036;-86
2022/05/17 05:48:40;;;;;;;10.00;2.33;;;29.60;60.00;;;;;;5054975;28;20024;-86
2022/05/17 05:51:06;;;;;;;;;;;29.40;59.80;;;;;;5074475;28;20024;-85
2022/05/17 05:53:32;;;;;;;8.35;1.70;;;30.90;58.40;;;;;;5055811;28;19904;-84
2022/05/17 05:56:01;;;;;;;;;;;31.00;57.40;;;;;;5073886;28;20400;-84
2022/05/17 05:58:31;;;;;;;15.18;2.53;;;30.70;56.70;;;;;;5071907;28;19919;-82
2022/05/17 06:00:59;;;;;;;8.00;1.88;;;30.30;57.70;;;;;;5071662;28;20033;-84
2022/05/17 06:03:26;;;;;;;10.75;3.03;;;31.10;57.20;;;;;;5071523;28;20020;-86
2022/05/17 06:05:53;;;;;;;8.40;2.30;;;31.20;57.70;;;;;;5053448;28;20108;-85
2022/05/17 06:08:20;;;;;;;11.52;2.03;;;32.70;55.00;;;;;;5071482;28;20090;-84
2022/05/17 06:10:46;;;;;;;8.15;1.90;;;32.30;54.90;;;;;;5071591;28;20040;-87
2022/05/17 06:13:16;;;;;;;;;;;31.50;56.10;;;;;;5071941;28;20021;-86
2022/05/17 06:15:42;;;;;;;7.38;2.13;;;31.80;55.80;;;;;;5071938;28;19905;-86
2022/05/17 06:18:09;;;;;;;9.68;2.35;;;32.40;54.90;;;;;;5071886;28;20365;-86
2022/05/17 06:20:54;;;;;;;8.90;2.38;;;32.90;53.90;;;;;;5072286;28;20056;-86
2022/05/17 06:23:21;;;;;;;12.10;2.57;;;32.20;54.00;;;;;;5031962;28;20084;-85
2022/05/17 06:25:48;;;;;;;8.98;2.17;;;32.30;54.60;;;;;;5032439;28;20505;-85
2022/05/17 06:28:14;;;;;;;9.60;2.10;;;32.10;52.60;;;;;;5032819;28;20067;-84
2022/05/17 06:30:43;;;;;;;;;;;31.80;52.90;;;;;;5037711;28;20022;-83
2022/05/17 06:33:11;;;;;;;6.40;1.85;;;31.30;53.80;;;;;;5035988;28;20008;-84
2022/05/17 06:35:42;;;;;;;6.25;1.85;;;30.20;55.30;;;;;;5035841;28;20045;-84
2022/05/17 06:38:09;;;;;;;6.53;1.90;;;30.50;55.20;;;;;;5035687;28;20045;-82
2022/05/17 06:40:37;;;;;;;9.02;1.95;;;30.80;54.30;;;;;;5035122;28;20417;-82
2022/05/17 06:43:04;;;;;;;8.10;2.45;;;31.00;54.20;;;;;;5034332;28;20028;-80
2022/05/17 06:45:30;;;;;;;10.30;2.83;;;31.10;53.60;;;;;;5034526;28;20446;-80
2022/05/17 06:47:56;;;;;;;6.45;1.88;;;30.80;53.70;;;;;;5035616;28;20386;-79
2022/05/17 06:50:22;;;;;;;;;;;30.90;54.00;;;;;;5036274;28;20029;-77
2022/05/17 06:52:48;;;;;;;9.48;2.03;;;32.60;52.60;;;;;;5035883;28;19916;-78
2022/05/17 06:55:15;;;;;;;11.05;2.10;;;33.00;50.80;;;;;;5036026;28;20030;-79
2022/05/17 06:57:42;;;;;;;7.78;2.17;;;32.60;51.00;;;;;;5035571;28;20033;-79
2022/05/17 07:00:12;;;;;;;6.80;1.80;;;33.00;50.90;;;;;;5035819;28;20068;-79
2022/05/17 07:02:39;;;;;;;5.03;1.60;;;32.80;50.70;;;;;;5035504;28;20080;-80
2022/05/17 07:05:06;;;;;;;6.07;1.63;;;31.80;52.10;;;;;;5035435;28;20033;-76
2022/05/17 07:07:32;;;;;;;7.95;2.00;;;31.90;52.70;;;;;;5035021;28;20112;-77
2022/05/17 07:15:28;;;;;;;11.40;1.95;;;30.10;55.20;;;;;;5035248;28;20041;-79
2022/05/17 07:17:54;;;;;;;7.80;1.80;;;29.70;55.60;;;;;;5035708;28;20464;-78
2022/05/17 07:20:20;;;;;;;5.40;1.77;;;28.90;56.70;;;;;;5035569;28;20473;-77
2022/05/17 07:22:46;;;;;;;8.38;1.95;;;28.50;56.70;;;;;;5067437;28;20058;-78
2022/05/17 07:25:12;;;;;;;6.15;1.80;;;28.00;57.80;;;;;;5074904;28;20112;-79
2022/05/17 07:27:38;;;;;;;8.18;1.98;;;27.40;58.50;;;;;;5074711;28;20084;-77
2022/05/17 07:30:06;;;;;;;10.90;1.80;;;26.90;58.70;;;;;;5074730;28;20066;-78
2022/05/17 07:32:32;;;;;;;8.05;2.20;;;26.70;59.30;;;;;;5074368;28;20025;-78
2022/05/17 07:34:59;;;;;;;8.60;2.15;;;26.50;60.30;;;;;;5056367;28;20056;-77
2022/05/17 07:37:25;;;;;;;7.28;2.03;;;26.90;59.60;;;;;;5074417;28;20104;-78
2022/05/17 07:39:52;;;;;;;8.45;1.88;;;27.30;59.00;;;;;;5073744;28;20108;-77
2022/05/17 07:42:17;;;;;;;;;;;27.10;58.10;;;;;;5075022;28;20028;-78
2022/05/17 07:44:43;;;;;;;;;;;27.20;57.80;;;;;;5075065;28;19923;-78
2022/05/17 07:47:10;;;;;;;12.25;2.30;;;26.70;58.70;;;;;;5074451;28;19950;-79
2022/05/17 07:49:38;;;;;;;10.63;2.38;;;26.90;59.10;;;;;;5074728;28;20028;-79
2022/05/17 07:52:06;;;;;;;6.65;2.30;;;26.80;59.40;;;;;;5073456;28;20017;-79
2022/05/17 07:54:32;;;;;;;8.13;2.55;;;27.10;59.00;;;;;;5073392;28;20060;-79
2022/05/17 07:56:58;;;;;;;8.63;2.10;;;27.10;58.00;;;;;;5054623;28;20491;-77
2022/05/17 07:59:46;;;;;;;7.65;2.38;;;27.00;58.20;;;;;;5071207;28;20130;-78
2022/05/17 08:02:12;;;;;;;11.02;2.47;;;27.20;57.20;;;;;;5073595;28;20052;-79
2022/05/17 08:04:38;;;;;;;;;;;27.70;56.20;;;;;;5073618;28;20040;-78
2022/05/17 08:07:04;;;;;;;;;;;28.20;56.20;;;;;;5073594;28;19911;-79
2022/05/17 08:09:30;;;;;;;;;;;28.60;54.70;;;;;;5073645;28;19904;-78
2022/05/17 08:11:56;;;;;;;;;;;29.10;54.90;;;;;;5073761;28;19915;-78
2022/05/17 08:14:23;;;;;;;8.55;2.00;;;29.00;54.90;;;;;;5073423;28;20003;-79
2022/05/17 08:16:49;;;;;;;8.02;2.13;;;29.00;54.60;;;;;;5073251;28;20024;-77
2022/05/17 08:19:15;;;;;;;5.82;1.88;;;28.00;55.70;;;;;;5073873;28;20071;-78
2022/05/17 08:21:41;;;;;;;;;;;27.10;56.80;;;;;;5074519;28;20126;-79
2022/05/17 08:24:07;;;;;;;;;;;27.50;56.10;;;;;;5074459;28;19963;-79
2022/05/17 08:29:17;;;;;;;9.02;2.13;;;27.60;55.80;;;;;;5073737;28;19931;-79
2022/05/17 08:34:29;;;;;;;7.45;1.55;;;27.30;56.90;;;;;;5073062;28;20400;-78
2022/05/17 08:36:55;;;;;;;6.38;2.10;;;27.40;56.20;;;;;;5073210;28;20519;-79
2022/05/17 08:39:21;;;;;;;8.25;2.00;;;27.70;56.30;;;;;;5073435;28;20484;-78
2022/05/17 08:41:57;;;;;;;8.63;1.88;;;27.90;56.30;;;;;;5073913;28;20021;-77
2022/05/17 08:44:49;;;;;;;7.10;2.00;;;28.10;57.30;;;;;;5073393;28;20063;-79
2022/05/17 08:47:40;;;;;;;7.78;2.00;;;28.10;54.20;;;;;;5073546;28;20472;-80
2022/05/17 08:50:26;;;;;;;8.07;1.92;;;28.10;52.90;;;;;;5073100;28;20453;-77
2022/05/17 08:52:54;;;;;;;7.95;1.90;;;28.10;53.10;;;;;;5073275;28;20021;-78
2022/05/17 08:55:36;;;;;;;8.05;2.00;;;28.30;53.50;;;;;;5072759;28;20477;-79
2022/05/17 08:58:05;;;;;;;8.07;1.92;;;28.90;54.20;;;;;;5072238;28;20028;-78
2022/05/17 09:00:42;;;;;;;13.38;2.75;;;29.40;58.00;;;;;;5072561;28;20016;-80
2022/05/17 09:03:23;;;;;;;9.30;2.20;;;29.90;58.60;;;;;;5072269;28;20043;-79
2022/05/17 09:06:04;;;;;;;10.95;2.42;;;30.10;58.80;;;;;;5055274;28;20087;-80
2022/05/17 09:08:45;;;;;;;15.23;5.85;;;30.10;58.30;;;;;;5073058;28;20024;-80
2022/05/17 09:11:22;;;;;;;9.20;2.35;;;30.00;58.80;;;;;;5072705;28;20035;-80
2022/05/17 09:14:02;;;;;;;11.30;2.30;;;29.90;59.60;;;;;;5073610;28;20028;-79
2022/05/17 09:16:33;;;;;;;8.55;2.00;;;29.80;59.60;;;;;;5073162;28;20032;-79
2022/05/17 09:19:00;;;;;;;10.20;2.50;;;29.70;60.10;;;;;;5054972;28;20036;-78
2022/05/17 09:21:27;;;;;;;9.35;2.30;;;29.90;59.50;;;;;;5072829;28;20441;-80
2022/05/17 09:23:53;;;;;;;10.15;2.53;;;30.00;59.40;;;;;;5072889;28;20032;-80
2022/05/17 09:26:20;;;;;;;12.75;2.75;;;30.10;58.40;;;;;;5072905;28;20056;-80
2022/05/17 09:29:04;;;;;;;9.50;2.33;;;29.90;58.90;;;;;;5072616;28;20021;-80
2022/05/17 09:31:36;;;;;;;9.77;2.20;;;29.70;59.70;;;;;;5071368;28;20384;-78
2022/05/17 09:34:06;;;;;;;14.25;3.05;;;29.80;59.80;;;;;;5072141;28;20447;-80
2022/05/17 09:36:42;;;;;;;9.95;2.35;;;29.70;59.80;;;;;;5072224;28;20031;-80
2022/05/17 09:39:10;;;;;;;10.25;2.40;;;29.80;60.00;;;;;;5071593;28;20055;-79
2022/05/17 09:41:39;;;;;;;7.70;2.10;;;29.40;59.50;;;;;;5072167;28;20071;-81
2022/05/17 09:44:11;;;;;;;9.68;2.30;;;29.00;60.40;;;;;;5071606;28;20162;-79
2022/05/17 09:46:50;;;;;;;10.27;2.35;;;28.90;61.20;;;;;;5072633;28;20017;-79
2022/05/17 09:54:55;;;;;;;8.85;2.30;;;28.70;63.60;;;;;;5071807;28;20082;-78
2022/05/17 09:57:22;;;;;;;10.93;2.20;;;28.80;63.70;;;;;;5071077;28;20085;-79
2022/05/17 09:59:52;;;;;;;10.23;2.60;;;28.70;64.30;;;;;;5071494;28;20035;-78
2022/05/17 10:02:49;;;;;;;8.00;2.53;;;28.30;65.60;;;;;;5071220;28;20028;-79
2022/05/17 10:05:20;;;;;;;6.30;2.30;;;28.20;67.70;;;;;;5070962;28;20044;-79
2022/05/17 10:08:05;;;;;;;18.55;2.80;;;28.40;65.60;;;;;;5071371;28;20052;-79
2022/05/17 10:10:33;;;;;;;8.70;3.15;;;28.50;64.70;;;;;;5053001;28;20031;-79
2022/05/17 10:13:37;;;;;;;15.10;3.67;;;28.30;63.90;;;;;;5071348;28;20480;-81
2022/05/17 10:16:15;;;;;;;6.20;2.30;;;28.20;64.20;;;;;;4970588;28;20043;-80
2022/05/17 10:18:48;;;;;;;8.48;2.20;;;28.10;64.60;;;;;;4954553;28;20068;-79
2022/05/17 10:21:23;;;;;;;8.85;2.75;;;28.10;65.60;;;;;;4970018;28;20042;-80
2022/05/17 10:24:06;;;;;;;11.77;2.58;;;28.10;64.60;;;;;;4954801;28;20046;-79
2022/05/17 10:26:45;;;;;;;14.75;2.78;;;27.90;64.70;;;;;;4970655;28;20065;-79
2022/05/17 10:29:26;;;;;;;8.07;2.15;;;28.00;64.10;;;;;;4954277;28;20356;-79
2022/05/17 10:31:57;;;;;;;8.02;2.78;;;27.80;62.60;;;;;;4970641;28;20038;-79
2022/05/17 10:34:52;;;;;;;9.35;2.50;;;27.90;63.10;;;;;;4954193;28;20027;-80
2022/05/17 10:37:22;;;;;;;10.88;2.35;;;28.10;63.60;;;;;;4954154;28;20053;-81
2022/05/17 10:39:57;;;;;;;10.98;2.33;;;28.00;61.40;;;;;;4970216;28;20145;-80
2022/05/17 10:42:24;;;;;;;8.05;2.33;;;28.10;62.40;;;;;;4970775;28;20081;-79
2022/05/17 10:44:53;;;;;;;8.82;2.63;;;28.00;62.20;;;;;;4970959;28;20062;-83
2022/05/17 10:47:28;;;;;;;8.23;2.65;;;27.80;62.60;;;;;;4970995;28;20123;-81
2022/05/17 10:50:04;;;;;;;7.93;2.33;;;27.90;61.00;;;;;;4971237;28;20037;-82
2022/05/17 10:52:30;;;;;;;;;;;27.80;61.50;;;;;;5057762;28;20081;-80
2022/05/17 10:54:58;;;;;;;;;;;27.90;61.20;;;;;;5071876;28;19995;-80
2022/05/17 10:57:51;;;;;;;9.52;2.00;;;28.00;60.10;;;;;;5070642;28;19905;-82
2022/05/17 11:00:39;;;;;;;12.43;2.40;;;28.10;58.40;;;;;;5052813;28;20445;-81
2022/05/17 11:03:29;;;;;;;11.07;2.60;;;28.20;58.80;;;;;;5070882;28;20132;-81
2022/05/17 11:06:26;;;;;;;9.77;2.28;;;28.30;57.00;;;;;;5070376;28;20064;-82
2022/05/17 11:08:55;;;;;;;10.18;2.30;;;28.20;57.20;;;;;;5071189;28;20100;-82
2022/05/17 11:11:41;;;;;;;9.75;2.47;;;28.10;55.60;;;;;;5071201;28;20025;-82
2022/05/17 11:17:55;;;;;;;5.88;2.13;;;28.00;57.80;;;;;;5062524;28;20407;-81
2022/05/17 11:20:30;;;;;;;11.02;2.28;;;28.10;56.90;;;;;;5074488;28;20033;-81
2022/05/17 11:23:14;;;;;;;8.07;2.42;;;28.10;57.50;;;;;;5074956;28;20055;-82
2022/05/17 11:25:49;;;;;;;11.13;2.58;;;28.00;56.60;;;;;;5074780;28;20067;-82
2022/05/17 11:28:48;;;;;;;11.73;2.50;;;28.20;55.40;;;;;;5075007;28;20016;-80
2022/05/17 11:31:18;;;;;;;10.32;2.42;;;28.40;54.90;;;;;;5037966;28;20029;-80
2022/05/17 11:33:44;;;;;;;8.70;2.30;;;28.60;55.00;;;;;;5075005;28;20118;-80
2022/05/17 11:36:33;;;;;;;11.82;2.42;;;28.60;54.30;;;;;;5075011;28;20024;-81
2022/05/17 11:39:02;;;;;;;10.95;2.40;;;28.40;55.30;;;;;;5075251;28;20047;-81
2022/05/17 11:41:35;;;;;;;7.72;2.10;;;28.30;55.30;;;;;;5074626;28;20024;-81
2022/05/17 11:44:05;;;;;;;7.72;2.63;;;28.40;55.00;;;;;;5074607;28;20025;-81
2022/05/17 11:46:32;;;;;;;13.57;2.50;;;28.40;55.40;;;;;;5074427;28;20491;-80
2022/05/17 11:49:18;;;;;;;9.80;2.13;;;28.50;55.40;;;;;;5074648;28;20028;-81
2022/05/17 11:52:21;;;;;;;11.00;2.25;;;28.60;54.50;;;;;;5073545;28;20029;-79
2022/05/17 11:54:49;;;;;;;9.50;2.67;;;28.80;54.20;;;;;;5073867;28;20073;-79
2022/05/17 11:57:18;;;;;;;6.80;2.35;;;28.80;54.80;;;;;;5074015;28;20025;-79
2022/05/17 11:59:54;;;;;;;12.05;2.88;;;29.00;55.00;;;;;;5072881;28;20112;-80
2022/05/17 12:02:46;;;;;;;10.55;2.20;;;29.00;54.20;;;;;;5073592;28;20111;-78
2022/05/17 12:05:38;;;;;;;11.30;2.38;;;29.10;54.10;;;;;;5057583;28;20036;-79
2022/05/17 12:08:43;;;;;;;7.93;2.30;;;29.30;54.30;;;;;;5061799;28;20055;-80
2022/05/17 12:11:09;;;;;;;;;;;29.10;54.00;;;;;;4974275;28;20502;-79
2022/05/17 12:13:58;;;;;;;11.57;2.60;;;28.90;54.40;;;;;;4973555;28;19906;-81
2022/05/17 12:16:31;;;;;;;6.85;2.30;;;28.90;54.30;;;;;;4974466;28;20575;-82
2022/05/17 12:19:02;;;;;;;10.18;2.20;;;28.70;54.30;;;;;;4974074;28;20023;-80
2022/05/17 12:21:41;;;;;;;9.32;1.90;;;28.70;54.70;;;;;;4974059;28;20122;-81
2022/05/17 12:24:33;;;;;;;9.23;1.98;;;28.90;54.40;;;;;;4974027;28;20046;-80
2022/05/17 12:27:23;;;;;;;7.40;1.95;;;28.70;54.10;;;;;;4957492;28;20073;-81
2022/05/17 12:32:48;;;;;;;5.43;2.00;;;28.50;55.00;;;;;;4974280;28;20525;-80
2022/05/17 12:35:24;;;;;;;8.02;2.22;;;28.70;55.50;;;;;;4974522;28;20046;-80
2022/05/17 12:37:51;;;;;;;7.18;2.38;;;28.80;56.00;;;;;;4974030;28;20074;-79
2022/05/17 12:43:28;;;;;;;7.03;2.20;;;28.70;54.30;;;;;;5064940;28;20039;-80
2022/05/17 12:46:00;;;;;;;5.65;2.35;;;28.80;54.60;;;;;;5062423;28;20112;-81
2022/05/17 12:48:35;;;;;;;7.35;2.05;;;28.70;53.90;;;;;;5061735;28;20442;-78
2022/05/17 12:51:08;;;;;;;9.35;2.28;;;28.40;53.70;;;;;;5067689;28;20159;-78
2022/05/17 12:53:53;;;;;;;7.82;2.20;;;28.60;54.80;;;;;;5061608;28;20040;-79
2022/05/17 12:56:22;;;;;;;9.35;2.65;;;28.80;54.30;;;;;;5062776;28;20044;-80
2022/05/17 12:59:25;;;;;;;8.13;2.47;;;28.80;53.50;;;;;;5061227;28;20351;-79
2022/05/17 13:01:54;;;;;;;8.68;1.98;;;28.70;53.60;;;;;;4990322;28;20537;-80
2022/05/17 13:04:29;;;;;;;10.20;2.42;;;28.70;53.40;;;;;;4990388;28;20168;-80
2022/05/17 13:07:12;;;;;;;8.55;2.30;;;28.80;53.50;;;;;;4989793;28;20038;-80
2022/05/17 13:09:53;;;;;;;9.23;2.40;;;28.70;53.50;;;;;;4992364;28;20486;-80
2022/05/17 13:12:20;;;;;;;7.97;2.00;;;28.60;54.10;;;;;;4992416;28;20089;-79
2022/05/17 13:14:48;;;;;;;4.32;1.95;;;28.70;54.10;;;;;;4992325;28;20022;-81
2022/05/17 13:17:33;;;;;;;10.27;2.45;;;28.80;54.50;;;;;;4991965;28;20070;-80
2022/05/17 13:20:11;;;;;;;8.88;1.98;;;28.90;54.40;;;;;;4992329;28;20392;-79
2022/05/17 13:22:42;;;;;;;9.25;2.33;;;28.80;53.50;;;;;;4975730;28;20061;-80
2022/05/17 13:25:12;;;;;;;7.68;2.38;;;28.90;53.20;;;;;;4992280;28;20045;-79
2022/05/17 13:27:46;;;;;;;10.25;2.22;;;28.90;52.70;;;;;;4992454;28;20164;-80
2022/05/17 13:30:33;;;;;;;8.25;2.00;;;28.90;53.70;;;;;;4993050;28;20131;-79
2022/05/17 13:33:01;;;;;;;12.13;2.45;;;29.10;53.20;;;;;;4991943;28;20038;-79
2022/05/17 13:35:42;;;;;;;8.98;2.30;;;29.20;52.80;;;;;;4991808;28;20045;-79
2022/05/17 13:38:23;;;;;;;9.15;2.47;;;29.20;52.60;;;;;;5032903;28;20048;-79
2022/05/17 13:40:51;;;;;;;8.48;2.15;;;29.20;53.70;;;;;;5068507;28;20021;-79